Time;durP1;ratioP1;P1;durP2;ratioP2;P2;SDS_P1;SDS_P2;PMS_P1;PMS_P2;Temp;Humidity;BMP_temperature;BMP_pressure;BME280_temperature;BME280_humidity;BME280_pressure;Samples;Min_cycle;Max_cycle;Signal;HPM_P1;HPM_P2
2023/11/02 00:01:57;;;;;;;32.90;21.30;;;;;;;6.43;100.00;99807.41;106091;1254;98444;-79
2023/11/02 00:04:43;;;;;;;29.70;20.40;;;;;;;6.42;100.00;99806.98;105766;1257;101437;-79
2023/11/02 00:07:30;;;;;;;29.90;20.10;;;;;;;6.41;100.00;99810.65;105810;1257;99114;-78
2023/11/02 00:10:16;;;;;;;28.50;19.50;;;;;;;6.41;100.00;99809.02;105804;1259;97911;-77
2023/11/02 00:13:02;;;;;;;28.80;19.00;;;;;;;6.42;100.00;99810.02;105898;1254;96466;-79
2023/11/02 00:15:48;;;;;;;24.20;17.80;;;;;;;6.41;100.00;99809.53;106113;1254;97836;-79
2023/11/02 00:18:34;;;;;;;30.40;18.60;;;;;;;6.41;100.00;99810.59;105891;1256;101374;-78
2023/11/02 00:21:27;;;;;;;27.70;18.50;;;;;;;6.41;100.00;99807.42;105942;1256;100692;-78
2023/11/02 00:24:14;;;;;;;26.30;17.40;;;;;;;6.40;100.00;99803.35;105910;1257;97957;-78
2023/11/02 00:26:59;;;;;;;23.80;17.50;;;;;;;6.39;100.00;99801.34;105713;1259;98113;-78
2023/11/02 00:29:44;;;;;;;28.10;18.80;;;;;;;6.38;100.00;99804.48;105892;1253;97980;-78
2023/11/02 00:32:30;;;;;;;28.90;18.70;;;;;;;6.36;100.00;99801.95;105928;1253;103197;-79
2023/11/02 00:35:15;;;;;;;25.20;18.00;;;;;;;6.35;100.00;99796.45;105867;1258;100000;-79
2023/11/02 00:38:02;;;;;;;25.00;18.00;;;;;;;6.34;100.00;99791.72;105873;1257;99015;-78
2023/11/02 00:40:48;;;;;;;26.30;18.10;;;;;;;6.33;100.00;99784.33;106198;1254;98581;-79
2023/11/02 00:43:33;;;;;;;26.50;17.10;;;;;;;6.32;100.00;99781.21;106324;1253;97972;-79
2023/11/02 00:46:19;;;;;;;28.60;18.40;;;;;;;6.31;100.00;99779.06;105799;1253;102765;-79
2023/11/02 00:49:11;;;;;;;25.00;16.30;;;;;;;6.29;100.00;99774.45;105685;1258;99079;-78
2023/11/02 00:52:00;;;;;;;27.00;17.20;;;;;;;6.28;100.00;99772.44;105963;1257;98746;-79
2023/11/02 00:54:51;;;;;;;26.30;17.90;;;;;;;6.27;100.00;99768.82;105823;1259;97968;-78
2023/11/02 00:57:38;;;;;;;;;;;;;;;6.27;100.00;99766.32;105759;1259;98030;-79
2023/11/02 01:00:54;;;;;;;22.10;14.70;;;;;;;6.24;100.00;99760.26;105954;1256;101358;-78
2023/11/02 01:03:45;;;;;;;24.60;15.70;;;;;;;6.23;100.00;99754.55;105808;1259;99147;-79
2023/11/02 01:06:32;;;;;;;23.20;15.50;;;;;;;6.23;100.00;99756.11;105753;1253;99163;-78
2023/11/02 01:09:45;;;;;;;27.50;15.40;;;;;;;6.23;100.00;99750.59;105780;1253;99126;-79
2023/11/02 01:12:35;;;;;;;21.40;14.10;;;;;;;6.23;100.00;99746.41;106025;1253;98417;-78
2023/11/02 01:15:44;;;;;;;24.70;17.30;;;;;;;6.23;100.00;99745.58;105863;1261;102469;-78
2023/11/02 01:18:30;;;;;;;22.10;15.20;;;;;;;6.22;100.00;99746.65;105994;1255;108467;-79
2023/11/02 01:21:17;;;;;;;23.70;15.20;;;;;;;6.23;100.00;99743.80;105721;1255;98847;-79
2023/11/02 01:24:08;;;;;;;19.70;14.70;;;;;;;6.23;100.00;99739.99;105970;1257;97960;-79
2023/11/02 01:26:59;;;;;;;18.60;13.40;;;;;;;6.23;100.00;99736.10;107770;1253;98467;-79
2023/11/02 01:29:48;;;;;;;22.50;14.70;;;;;;;6.22;100.00;99730.53;106925;1256;102162;-80
2023/11/02 01:32:33;;;;;;;21.90;13.80;;;;;;;6.22;100.00;99733.92;105941;1253;99555;-80
2023/11/02 01:35:42;;;;;;;19.70;14.40;;;;;;;6.23;100.00;99732.38;105984;1253;97906;-80
2023/11/02 01:38:27;;;;;;;22.10;14.00;;;;;;;6.24;100.00;99726.30;105959;1254;99355;-79
2023/11/02 01:41:18;;;;;;;24.00;14.40;;;;;;;6.23;100.00;99725.51;105816;1254;98421;-79
2023/11/02 01:44:10;;;;;;;18.60;13.60;;;;;;;6.22;100.00;99718.17;105873;1254;101376;-79
2023/11/02 01:47:24;;;;;;;18.30;12.70;;;;;;;6.21;100.00;99717.46;105879;1255;99125;-78
2023/11/02 01:50:29;;;;;;;21.10;13.30;;;;;;;6.20;100.00;99715.40;108189;1253;97945;-79
2023/11/02 01:53:46;;;;;;;21.10;13.70;;;;;;;6.20;100.00;99712.22;106053;1253;97977;-80
2023/11/02 01:56:55;;;;;;;18.70;12.40;;;;;;;6.21;100.00;99709.80;105946;1254;98738;-78
2023/11/02 01:59:50;;;;;;;17.10;12.40;;;;;;;6.21;100.00;99710.95;106140;1257;101370;-79
2023/11/02 02:02:50;;;;;;;20.80;13.30;;;;;;;6.21;100.00;99710.59;105965;1257;99070;-78
2023/11/02 02:05:46;;;;;;;19.00;11.90;;;;;;;6.22;100.00;99709.13;105844;1253;98827;-78
2023/11/02 02:09:02;;;;;;;19.00;12.90;;;;;;;6.23;100.00;99710.48;105823;1259;97958;-79
2023/11/02 02:12:10;;;;;;;17.30;12.60;;;;;;;6.22;100.00;99711.92;106005;1255;97880;-79
2023/11/02 02:15:06;;;;;;;19.00;12.60;;;;;;;6.22;100.00;99710.36;106083;1256;101401;-79
2023/11/02 02:18:15;;;;;;;16.60;11.40;;;;;;;6.22;100.00;99706.96;106028;1254;100404;-78
2023/11/02 02:21:24;;;;;;;18.90;11.90;;;;;;;6.22;100.00;99702.63;105893;1259;98968;-79
2023/11/02 02:24:21;;;;;;;16.90;10.80;;;;;;;6.21;100.00;99697.70;105834;1259;98009;-79
2023/11/02 02:27:26;;;;;;;15.60;11.50;;;;;;;6.20;100.00;99698.35;105890;1259;97955;-79
2023/11/02 02:30:45;;;;;;;17.90;11.90;;;;;;;6.20;100.00;99696.22;105989;1256;101327;-80
2023/11/02 02:33:43;;;;;;;18.20;11.60;;;;;;;6.19;100.00;99696.86;105966;1257;99082;-79
2023/11/02 02:36:46;;;;;;;14.90;10.60;;;;;;;6.19;100.00;99700.05;106165;1254;97902;-80
2023/11/02 02:39:38;;;;;;;17.40;11.90;;;;;;;6.20;100.00;99695.40;106079;1253;97934;-77
2023/11/02 02:42:23;;;;;;;15.70;11.20;;;;;;;6.20;100.00;99691.95;106051;1258;99752;-79
2023/11/02 02:45:11;;;;;;;17.80;12.10;;;;;;;6.20;100.00;99683.45;105949;1253;102684;-79
2023/11/02 02:48:00;;;;;;;16.90;11.30;;;;;;;6.21;100.00;99678.63;106083;1254;99112;-79
2023/11/02 02:50:50;;;;;;;17.20;11.80;;;;;;;6.21;100.00;99681.02;105821;1254;97943;-79
2023/11/02 02:53:38;;;;;;;15.60;11.30;;;;;;;6.22;100.00;99687.16;105822;1253;98053;-80
2023/11/02 02:56:25;;;;;;;18.80;11.80;;;;;;;6.22;100.00;99690.55;105799;1254;98482;-78
2023/11/02 02:59:16;;;;;;;19.30;12.10;;;;;;;6.21;100.00;99692.73;105873;1257;101393;-80
2023/11/02 03:02:03;;;;;;;15.90;11.10;;;;;;;6.21;100.00;99687.48;106190;1254;100433;-79
2023/11/02 03:04:50;;;;;;;16.50;11.00;;;;;;;6.21;100.00;99682.48;106144;1256;99202;-79
2023/11/02 03:07:36;;;;;;;16.50;11.00;;;;;;;6.21;100.00;99677.04;106133;1253;97882;-79
2023/11/02 03:10:25;;;;;;;16.40;11.10;;;;;;;6.20;100.00;99677.15;106155;1256;97907;-79
2023/11/02 03:13:14;;;;;;;17.00;11.90;;;;;;;6.20;100.00;99679.11;105854;1252;101969;-80
2023/11/02 03:16:05;;;;;;;18.00;11.70;;;;;;;6.19;100.00;99676.88;106182;1253;99777;-80
2023/11/02 03:18:50;;;;;;;19.60;12.50;;;;;;;6.18;100.00;99667.73;105860;1253;98437;-79
2023/11/02 03:21:36;;;;;;;21.10;12.50;;;;;;;6.18;100.00;99667.26;105916;1253;97964;-79
2023/11/02 03:24:37;;;;;;;22.20;13.60;;;;;;;6.17;100.00;99664.13;106031;1253;98718;-78
2023/11/02 03:27:37;;;;;;;20.90;13.20;;;;;;;6.16;100.00;99665.48;105954;1253;101335;-78
2023/11/02 03:30:38;;;;;;;19.90;11.80;;;;;;;6.15;100.00;99667.21;106377;1255;99687;-79
2023/11/02 03:33:39;;;;;;;20.70;12.20;;;;;;;6.14;100.00;99667.68;107833;1254;97941;-79
2023/11/02 03:36:37;;;;;;;;;;;;;;;6.15;100.00;99666.75;106153;1258;98043;-79
2023/11/02 03:39:42;;;;;;;16.70;11.20;;;;;;;6.14;100.00;99662.23;106072;1253;97839;-79
2023/11/02 03:42:35;;;;;;;16.30;11.40;;;;;;;6.15;100.00;99658.94;106345;1254;102358;-80
2023/11/02 03:45:38;;;;;;;18.50;11.90;;;;;;;6.15;100.00;99654.33;106011;1253;99056;-79
2023/11/02 03:48:49;;;;;;;14.70;9.80;;;;;;;6.15;100.00;99646.98;105979;1253;97870;-80
2023/11/02 03:52:11;;;;;;;17.10;10.10;;;;;;;6.15;100.00;99640.30;106094;1254;98384;-79
2023/11/02 03:55:15;;;;;;;17.90;11.80;;;;;;;6.14;100.00;99639.04;106405;1257;99216;-80
2023/11/02 03:58:11;;;;;;;21.10;12.40;;;;;;;6.13;100.00;99636.44;106297;1254;102604;-81
2023/11/02 04:01:15;;;;;;;21.30;13.00;;;;;;;6.14;100.00;99634.39;98941;1260;10002818;-80
2023/11/02 04:04:06;;;;;;;23.10;14.20;;;;;;;6.13;100.00;99636.84;106372;1254;98033;-79
2023/11/02 04:07:01;;;;;;;18.00;12.50;;;;;;;6.13;100.00;99641.64;106541;1254;101412;-78
2023/11/02 04:09:52;;;;;;;15.90;11.10;;;;;;;6.13;100.00;99648.02;106551;1254;100544;-80
2023/11/02 04:12:48;;;;;;;15.10;11.20;;;;;;;6.12;100.00;99645.08;106839;1254;98073;-80
2023/11/02 04:15:34;;;;;;;13.60;9.80;;;;;;;6.12;100.00;99639.80;107016;1254;97954;-80
2023/11/02 04:18:20;;;;;;;14.40;10.50;;;;;;;6.12;100.00;99636.48;106581;1254;98564;-80
2023/11/02 04:21:06;;;;;;;15.80;11.40;;;;;;;6.12;100.00;99636.80;106474;1257;101397;-80
2023/11/02 04:23:51;;;;;;;17.10;11.50;;;;;;;6.12;100.00;99636.94;106569;1254;99085;-80
2023/11/02 04:26:37;;;;;;;20.10;12.10;;;;;;;6.11;100.00;99628.14;106501;1254;97791;-80
2023/11/02 04:29:23;;;;;;;18.20;12.90;;;;;;;6.11;100.00;99626.55;106120;1258;98049;-79
2023/11/02 04:32:09;;;;;;;21.40;13.00;;;;;;;6.10;100.00;99630.24;106103;1257;98494;-79
2023/11/02 04:34:56;;;;;;;23.30;13.90;;;;;;;6.10;100.00;99625.19;105988;1253;102638;-79
2023/11/02 04:37:42;;;;;;;20.60;13.10;;;;;;;6.09;100.00;99617.80;105847;1253;99047;-80
2023/11/02 04:40:27;;;;;;;22.40;14.70;;;;;;;6.08;100.00;99609.10;105772;1258;98603;-79
2023/11/02 04:43:13;;;;;;;23.60;15.30;;;;;;;6.06;100.00;99608.59;106018;1254;98048;-80
2023/11/02 04:45:59;;;;;;;21.80;14.60;;;;;;;6.05;100.00;99604.80;106092;1253;97854;-79
2023/11/02 04:48:44;;;;;;;24.00;15.60;;;;;;;6.05;100.00;99604.81;106005;1254;103161;-79
2023/11/02 04:51:30;;;;;;;19.40;13.80;;;;;;;6.05;100.00;99609.80;106321;1256;99084;-79
2023/11/02 04:54:24;;;;;;;21.50;14.00;;;;;;;6.05;100.00;99608.45;106136;1253;98901;-79
2023/11/02 04:57:10;;;;;;;19.40;12.80;;;;;;;6.03;100.00;99608.22;108711;1253;95519;-81
2023/11/02 04:59:55;;;;;;;16.20;12.00;;;;;;;6.02;100.00;99605.91;106157;1253;98478;-80
2023/11/02 05:02:41;;;;;;;20.30;11.50;;;;;;;6.01;100.00;99604.13;106105;1254;101400;-79
2023/11/02 05:05:28;;;;;;;19.20;12.30;;;;;;;5.97;100.00;99603.90;105955;1253;100279;-79
2023/11/02 05:08:13;;;;;;;20.40;12.80;;;;;;;5.95;100.00;99605.18;105979;1253;98035;-79
2023/11/02 05:10:59;;;;;;;19.60;11.90;;;;;;;5.93;100.00;99603.27;106015;1253;98744;-79
2023/11/02 05:13:45;;;;;;;18.00;12.00;;;;;;;5.92;100.00;99594.37;106132;1253;97846;-79
2023/11/02 05:16:30;;;;;;;17.30;11.50;;;;;;;5.91;100.00;99587.94;106126;1256;102594;-79
2023/11/02 05:19:16;;;;;;;20.00;12.30;;;;;;;5.89;100.00;99585.53;106152;1253;100313;-80
2023/11/02 05:22:02;;;;;;;17.90;13.00;;;;;;;5.87;100.00;99589.44;106077;1253;97985;-79
2023/11/02 05:24:47;;;;;;;20.30;13.70;;;;;;;5.85;100.00;99593.04;106083;1253;98843;-79
2023/11/02 05:27:33;;;;;;;18.40;12.50;;;;;;;5.84;100.00;99591.95;106137;1254;98448;-79
2023/11/02 05:30:18;;;;;;;18.50;13.10;;;;;;;5.83;100.00;99587.56;106102;1253;101318;-78
2023/11/02 05:33:04;;;;;;;19.50;13.40;;;;;;;5.82;100.00;99581.92;106122;1253;99059;-80
2023/11/02 05:35:51;;;;;;;20.20;12.90;;;;;;;5.81;100.00;99580.44;106223;1257;99165;-80
2023/11/02 05:38:36;;;;;;;20.20;13.90;;;;;;;5.80;100.00;99580.41;106360;1253;98031;-80
2023/11/02 05:41:22;;;;;;;22.30;16.30;;;;;;;5.77;100.00;99580.50;106379;1253;97864;-80
2023/11/02 05:44:07;;;;;;;26.70;15.80;;;;;;;5.75;100.00;99575.08;106422;1253;102394;-80
2023/11/02 05:46:53;;;;;;;21.70;14.70;;;;;;;5.74;100.00;99569.87;106473;1254;99240;-80
2023/11/02 05:49:38;;;;;;;22.40;16.30;;;;;;;5.74;100.00;99573.25;106305;1254;97868;-80
2023/11/02 05:52:24;;;;;;;24.00;17.00;;;;;;;5.74;100.00;99572.92;106323;1256;98113;-80
2023/11/02 05:55:09;;;;;;;20.70;13.90;;;;;;;5.74;100.00;99576.32;106332;1253;97777;-80
2023/11/02 05:57:55;;;;;;;20.80;13.30;;;;;;;5.74;100.00;99578.41;106281;1253;101342;-79
2023/11/02 06:00:41;;;;;;;22.00;15.10;;;;;;;5.75;100.00;99575.84;106316;1254;99117;-80
2023/11/02 06:03:29;;;;;;;22.30;14.70;;;;;;;5.74;100.00;99572.52;106205;1254;97970;-79
2023/11/02 06:06:14;;;;;;;21.00;13.80;;;;;;;5.75;100.00;99566.04;105782;1257;97996;-79
2023/11/02 06:09:00;;;;;;;20.90;14.40;;;;;;;5.76;100.00;99561.13;105941;1259;97981;-78
2023/11/02 06:11:45;;;;;;;22.30;15.10;;;;;;;5.78;100.00;99556.25;105825;1257;101444;-78
2023/11/02 06:14:31;;;;;;;22.80;15.00;;;;;;;5.81;100.00;99550.80;105959;1256;100122;-80
2023/11/02 06:17:17;;;;;;;24.40;15.00;;;;;;;5.84;100.00;99547.84;105961;1258;97961;-79
2023/11/02 06:20:06;;;;;;;23.30;14.50;;;;;;;5.87;100.00;99546.98;105906;1253;97940;-78
2023/11/02 06:22:51;;;;;;;24.30;14.90;;;;;;;5.90;100.00;99541.24;105891;1259;97940;-79
2023/11/02 06:25:37;;;;;;;23.20;14.80;;;;;;;5.94;100.00;99536.11;106033;1256;101474;-79
2023/11/02 06:28:23;;;;;;;23.00;14.60;;;;;;;5.98;100.00;99533.05;105893;1258;100439;-79
2023/11/02 06:31:09;;;;;;;23.10;14.40;;;;;;;6.02;100.00;99539.08;105834;1258;98382;-79
2023/11/02 06:33:55;;;;;;;23.80;15.10;;;;;;;6.05;100.00;99544.52;106072;1254;99119;-79
2023/11/02 06:36:40;;;;;;;21.50;14.80;;;;;;;6.08;100.00;99542.23;106054;1259;97986;-79
2023/11/02 06:39:26;;;;;;;21.60;14.60;;;;;;;6.11;100.00;99536.59;105950;1256;101422;-79
2023/11/02 06:42:14;;;;;;;21.70;14.70;;;;;;;6.13;100.00;99527.77;105843;1254;99138;-79
2023/11/02 06:45:00;;;;;;;24.00;15.70;;;;;;;6.16;100.00;99523.04;105882;1256;97977;-79
2023/11/02 06:47:46;;;;;;;22.20;15.50;;;;;;;6.19;100.00;99518.58;106018;1253;98470;-79
2023/11/02 06:50:32;;;;;;;22.20;14.50;;;;;;;6.22;100.00;99518.36;105711;1253;99346;-79
2023/11/02 06:53:17;;;;;;;24.90;14.60;;;;;;;6.25;100.00;99520.70;105892;1253;101351;-78
2023/11/02 06:56:04;;;;;;;21.40;14.90;;;;;;;6.29;100.00;99520.62;105929;1254;100922;-79
2023/11/02 06:58:49;;;;;;;18.50;13.30;;;;;;;6.34;100.00;99523.52;105868;1253;97982;-78
2023/11/02 07:01:36;;;;;;;25.30;13.80;;;;;;;6.40;100.00;99520.60;106036;1254;98613;-79
2023/11/02 07:04:22;;;;;;;18.50;12.70;;;;;;;6.47;100.00;99517.52;106078;1257;98379;-79
2023/11/02 07:07:07;;;;;;;22.00;13.00;;;;;;;6.54;100.00;99514.27;106055;1256;102261;-78
2023/11/02 07:09:53;;;;;;;17.50;12.50;;;;;;;6.61;100.00;99514.63;105997;1254;101077;-78
2023/11/02 07:12:38;;;;;;;19.90;13.00;;;;;;;6.69;100.00;99516.30;106136;1256;98821;-80
2023/11/02 07:15:24;;;;;;;19.90;13.60;;;;;;;6.77;100.00;99516.23;106365;1255;98534;-80
2023/11/02 07:18:13;;;;;;;22.10;14.50;;;;;;;6.83;100.00;99506.55;106678;1253;97791;-80
2023/11/02 07:20:58;;;;;;;21.40;13.60;;;;;;;6.89;100.00;99493.78;105811;1256;102036;-79
2023/11/02 07:23:44;;;;;;;20.40;14.70;;;;;;;6.95;100.00;99496.69;106377;1254;99095;-80
2023/11/02 07:26:29;;;;;;;21.70;13.70;;;;;;;7.02;100.00;99501.67;106169;1254;98629;-80
2023/11/02 07:29:15;;;;;;;21.90;14.00;;;;;;;7.09;100.00;99498.00;106516;1253;97949;-79
2023/11/02 07:32:01;;;;;;;26.80;14.70;;;;;;;7.16;100.00;99492.50;106444;1259;98431;-80
2023/11/02 07:35:43;;;;;;;23.90;15.20;;;;;;;7.23;100.00;99489.20;107047;1256;101402;-87
2023/11/02 07:38:28;;;;;;;27.50;17.70;;;;;;;7.32;100.00;99489.02;106475;1254;100403;-84
2023/11/02 07:41:15;;;;;;;22.00;15.00;;;;;;;7.41;100.00;99479.58;106357;1254;98909;-86
2023/11/02 07:44:35;;;;;;;23.80;14.70;;;;;;;7.49;100.00;99473.91;106676;1259;97974;-83
2023/11/02 07:47:42;;;;;;;17.30;12.10;;;;;;;7.57;100.00;99470.19;106207;1259;99621;-84
2023/11/02 07:50:54;;;;;;;16.20;11.60;;;;;;;7.64;100.00;99460.24;106804;1256;101324;-88
2023/11/02 07:54:21;;;;;;;17.40;11.30;;;;;;;7.72;100.00;99451.42;106462;1254;99785;-86
2023/11/02 07:57:10;;;;;;;17.70;11.90;;;;;;;7.78;100.00;99450.56;106899;1258;98382;-85
2023/11/02 08:00:11;;;;;;;16.60;11.80;;;;;;;7.86;100.00;99448.30;106495;1259;97869;-81
2023/11/02 08:02:59;;;;;;;18.80;11.70;;;;;;;7.93;100.00;99448.34;106478;1258;97898;-80
2023/11/02 08:05:44;;;;;;;18.20;11.60;;;;;;;8.02;100.00;99446.42;106059;1254;102094;-80
2023/11/02 08:08:30;;;;;;;19.20;12.10;;;;;;;8.11;100.00;99441.33;105910;1256;99060;-79
2023/11/02 08:11:15;;;;;;;17.60;11.00;;;;;;;8.19;100.00;99438.27;105891;1254;98141;-80
2023/11/02 08:14:01;;;;;;;19.50;11.70;;;;;;;8.27;100.00;99432.96;105849;1257;97945;-80
2023/11/02 08:16:47;;;;;;;17.60;11.10;;;;;;;8.38;100.00;99429.35;105908;1259;98720;-80
2023/11/02 08:19:32;;;;;;;15.20;10.70;;;;;;;8.46;100.00;99422.97;105953;1254;101392;-80
2023/11/02 08:22:18;;;;;;;20.10;13.40;;;;;;;8.54;100.00;99417.84;105973;1258;100332;-79
2023/11/02 08:25:04;;;;;;;15.60;11.10;;;;;;;8.62;100.00;99410.89;105866;1259;98154;-79
2023/11/02 08:27:57;;;;;;;15.20;10.80;;;;;;;8.72;100.00;99407.13;105784;1258;97948;-79
2023/11/02 08:30:42;;;;;;;16.80;11.80;;;;;;;8.81;100.00;99402.86;105889;1254;97976;-79
2023/11/02 08:33:28;;;;;;;15.80;10.60;;;;;;;8.89;100.00;99399.83;105938;1260;103927;-80
2023/11/02 08:36:14;;;;;;;19.20;11.70;;;;;;;8.97;100.00;99392.97;105987;1259;100363;-80
2023/11/02 08:39:00;;;;;;;20.70;13.70;;;;;;;9.05;100.00;99388.86;105931;1256;99129;-79
2023/11/02 08:41:45;;;;;;;19.30;12.50;;;;;;;9.12;100.00;99388.08;105915;1256;97976;-79
2023/11/02 08:44:31;;;;;;;18.20;11.90;;;;;;;9.19;100.00;99383.80;105835;1259;98613;-78
2023/11/02 08:47:16;;;;;;;25.40;14.50;;;;;;;9.25;100.00;99376.10;105895;1258;102237;-80
2023/11/02 08:50:03;;;;;;;21.50;13.00;;;;;;;9.32;100.00;99370.17;105912;1262;99303;-80
2023/11/02 08:52:49;;;;;;;25.50;15.30;;;;;;;9.38;100.00;99367.90;106279;1254;97881;-79
2023/11/02 08:55:34;;;;;;;33.80;18.90;;;;;;;9.47;100.00;99369.10;105931;1259;97957;-81
2023/11/02 08:58:20;;;;;;;18.30;11.70;;;;;;;9.55;100.00;99368.97;106173;1264;98467;-81
2023/11/02 09:01:05;;;;;;;16.30;10.70;;;;;;;9.64;100.00;99366.83;106568;1254;102004;-80
2023/11/02 09:03:53;;;;;;;17.60;10.50;;;;;;;9.75;100.00;99365.11;106635;1254;99196;-80
2023/11/02 09:06:39;;;;;;;16.90;10.10;;;;;;;9.86;100.00;99365.23;105789;1260;98030;-80
2023/11/02 09:09:25;;;;;;;17.10;10.50;;;;;;;9.95;100.00;99363.71;105831;1260;97935;-80
2023/11/02 09:12:11;;;;;;;16.50;10.90;;;;;;;10.04;100.00;99362.77;105934;1258;97978;-81
2023/11/02 09:14:57;;;;;;;12.80;9.50;;;;;;;10.13;100.00;99358.77;105917;1268;101354;-81
2023/11/02 09:17:42;;;;;;;14.40;9.60;;;;;;;10.22;100.00;99351.14;106220;1261;99670;-80
2023/11/02 09:20:27;;;;;;;16.60;10.30;;;;;;;10.30;100.00;99345.17;106482;1255;98561;-81
2023/11/02 09:23:13;;;;;;;15.50;10.00;;;;;;;10.38;100.00;99334.13;106594;1256;97888;-81
2023/11/02 09:25:59;;;;;;;12.30;9.10;;;;;;;10.45;100.00;99329.58;106539;1254;97745;-81
2023/11/02 09:28:44;;;;;;;16.10;9.80;;;;;;;10.51;100.00;99322.48;106510;1258;102068;-80
2023/11/02 09:31:30;;;;;;;16.20;9.80;;;;;;;10.57;100.00;99315.45;106300;1258;99218;-80
2023/11/02 09:34:16;;;;;;;17.50;9.40;;;;;;;10.65;100.00;99310.27;106283;1258;98717;-79
2023/11/02 09:37:02;;;;;;;15.90;9.10;;;;;;;10.74;100.00;99307.73;106286;1253;97951;-80
2023/11/02 09:39:48;;;;;;;16.00;10.30;;;;;;;10.82;100.00;99308.77;106464;1258;97738;-79
2023/11/02 09:42:34;;;;;;;16.80;9.20;;;;;;;10.91;100.00;99302.44;106406;1257;101383;-80
2023/11/02 09:45:20;;;;;;;15.90;9.30;;;;;;;11.00;100.00;99300.86;106360;1257;99154;-79
2023/11/02 09:48:06;;;;;;;15.70;9.50;;;;;;;11.11;100.00;99303.17;106288;1254;98968;-79
2023/11/02 09:50:51;;;;;;;17.80;10.00;;;;;;;11.22;100.00;99303.23;106304;1254;97949;-79
2023/11/02 09:53:37;;;;;;;39.60;21.40;;;;;;;11.31;100.00;99293.94;106411;1258;98383;-79
2023/11/02 09:56:23;;;;;;;16.50;10.80;;;;;;;11.40;100.00;99286.99;106204;1259;101434;-79
2023/11/02 09:59:09;;;;;;;14.40;8.10;;;;;;;11.49;100.00;99285.66;105728;1258;99108;-80
2023/11/02 10:01:56;;;;;;;12.90;7.10;;;;;;;11.58;100.00;99284.76;105880;1272;97947;-79
2023/11/02 10:04:42;;;;;;;15.60;8.80;;;;;;;11.67;100.00;99279.13;105965;1256;98067;-79
2023/11/02 10:07:28;;;;;;;12.20;8.40;;;;;;;11.75;100.00;99276.56;105747;1254;100375;-79
2023/11/02 10:10:14;;;;;;;13.20;9.50;;;;;;;11.82;100.00;99266.65;105900;1258;102703;-79
2023/11/02 10:13:00;;;;;;;11.80;7.30;;;;;;;11.87;100.00;99257.79;106061;1254;100297;-80
2023/11/02 10:15:46;;;;;;;9.10;7.10;;;;;;;11.92;100.00;99255.66;105663;1258;99273;-80
2023/11/02 10:18:31;;;;;;;9.30;7.30;;;;;;;11.98;100.00;99251.95;105797;1260;99164;-80
2023/11/02 10:21:19;;;;;;;12.60;7.20;;;;;;;12.02;100.00;99251.33;105701;1254;98459;-80
2023/11/02 10:24:05;;;;;;;13.90;7.80;;;;;;;12.08;100.00;99242.41;105805;1266;101356;-79
2023/11/02 10:26:51;;;;;;;10.40;6.40;;;;;;;12.16;100.00;99243.70;105710;1260;99163;-79
2023/11/02 10:29:37;;;;;;;8.60;6.60;;;;;;;12.23;100.00;99245.54;105703;1259;98625;-79
2023/11/02 10:32:23;;;;;;;12.30;6.90;;;;;;;12.27;100.00;99233.77;105803;1259;97987;-79
2023/11/02 10:35:09;;;;;;;11.10;6.40;;;;;;;12.31;100.00;99224.42;107810;1260;96616;-80
2023/11/02 10:37:55;;;;;;;12.70;6.60;;;;;;;12.35;100.00;99224.40;105852;1257;101397;-79
2023/11/02 10:40:45;;;;;;;12.80;7.20;;;;;;;12.41;100.00;99226.21;105833;1256;99092;-80
2023/11/02 10:43:33;;;;;;;12.30;7.60;;;;;;;12.46;100.00;99217.92;105596;1254;98011;-79
2023/11/02 10:46:20;;;;;;;10.80;7.20;;;;;;;12.50;100.00;99218.76;105765;1267;97949;-80
2023/11/02 10:49:11;;;;;;;15.80;11.30;;;;;;;12.54;100.00;99218.10;105991;1259;98566;-80
2023/11/02 10:51:58;;;;;;;11.30;6.90;;;;;;;12.58;100.00;99210.52;106085;1256;101338;-80
2023/11/02 10:54:54;;;;;;;12.10;8.60;;;;;;;12.61;100.00;99208.80;105833;1254;99054;-78
2023/11/02 10:57:41;;;;;;;9.00;5.50;;;;;;;12.64;100.00;99212.55;105764;1261;98484;-80
2023/11/02 11:00:27;;;;;;;8.40;4.70;;;;;;;12.70;99.94;99208.97;105998;1254;97946;-79
2023/11/02 11:03:13;;;;;;;9.00;5.10;;;;;;;12.77;99.99;99205.38;105896;1258;97967;-79
2023/11/02 11:05:59;;;;;;;8.60;5.00;;;;;;;12.84;99.89;99200.79;105986;1266;102082;-80
2023/11/02 11:08:46;;;;;;;8.20;4.80;;;;;;;12.90;99.67;99193.55;106271;1254;100911;-80
2023/11/02 11:11:33;;;;;;;9.00;5.40;;;;;;;12.95;98.80;99187.88;106091;1257;99532;-80
2023/11/02 11:14:19;;;;;;;7.50;4.70;;;;;;;13.02;98.00;99185.23;106291;1259;97950;-80
2023/11/02 11:17:04;;;;;;;7.40;4.30;;;;;;;13.07;97.27;99181.88;106622;1254;97954;-80
2023/11/02 11:19:50;;;;;;;7.50;4.20;;;;;;;13.12;96.84;99178.21;106457;1257;101317;-80
2023/11/02 11:22:37;;;;;;;9.20;4.60;;;;;;;13.15;97.10;99181.18;106572;1254;99695;-80
2023/11/02 11:25:23;;;;;;;9.10;4.10;;;;;;;13.20;97.12;99181.13;105935;1258;97964;-80
2023/11/02 11:28:34;;;;;;;7.50;4.50;;;;;;;13.24;96.92;99167.39;105926;1254;99155;-79
2023/11/02 11:31:55;;;;;;;6.00;3.90;;;;;;;13.28;96.12;99163.54;105848;1258;99612;-80
2023/11/02 11:34:53;;;;;;;8.90;4.20;;;;;;;13.33;95.61;99160.80;105603;1260;101450;-79
2023/11/02 11:38:01;;;;;;;9.00;4.70;;;;;;;13.37;95.57;99152.84;105745;1253;99964;-79
2023/11/02 11:40:47;;;;;;;6.20;4.30;;;;;;;13.42;95.36;99149.40;105913;1269;99032;-79
2023/11/02 11:44:03;;;;;;;8.50;4.70;;;;;;;13.46;95.18;99142.15;105680;1254;98211;-79
2023/11/02 11:47:07;;;;;;;6.80;4.30;;;;;;;13.49;94.91;99134.70;105838;1254;103571;-81
2023/11/02 11:49:52;;;;;;;8.90;4.00;;;;;;;13.54;94.75;99143.91;105879;1255;101424;-78
2023/11/02 11:52:38;;;;;;;16.60;8.20;;;;;;;13.56;94.39;99142.65;105865;1265;99661;-79
2023/11/02 11:55:34;;;;;;;5.60;3.90;;;;;;;13.57;94.29;99135.05;105881;1268;99237;-79
2023/11/02 11:58:42;;;;;;;15.50;7.50;;;;;;;13.61;93.91;99124.08;106175;1254;98165;-79
2023/11/02 12:01:27;;;;;;;11.30;4.70;;;;;;;13.65;94.33;99121.46;106268;1255;98383;-81
2023/11/02 12:04:48;;;;;;;9.50;4.40;;;;;;;13.70;94.30;99117.90;105969;1258;102468;-79
2023/11/02 12:07:35;;;;;;;6.20;4.30;;;;;;;13.76;93.79;99115.64;106443;1254;99226;-79
2023/11/02 12:10:22;;;;;;;6.50;3.50;;;;;;;13.80;93.60;99110.59;105961;1254;98284;-79
2023/11/02 12:13:08;;;;;;;5.80;3.30;;;;;;;13.84;93.20;99113.84;105916;1259;98053;-81
2023/11/02 12:15:56;;;;;;;5.50;3.80;;;;;;;13.86;92.81;99107.21;106050;1257;99677;-80
2023/11/02 12:18:53;;;;;;;8.20;4.20;;;;;;;13.88;92.42;99105.46;105944;1254;101966;-80
2023/11/02 12:21:40;;;;;;;7.90;3.30;;;;;;;13.91;91.72;99094.20;106072;1257;100296;-80
2023/11/02 12:24:26;;;;;;;8.60;3.70;;;;;;;13.94;91.08;99090.20;105851;1260;97941;-80
2023/11/02 12:27:15;;;;;;;7.60;3.60;;;;;;;13.97;90.88;99083.14;105948;1254;97970;-79
2023/11/02 12:30:03;;;;;;;6.80;4.90;;;;;;;13.98;90.76;99083.11;106320;1257;97976;-80
2023/11/02 12:32:48;;;;;;;6.10;3.80;;;;;;;13.98;90.46;99075.90;106245;1257;102949;-81
2023/11/02 12:35:34;;;;;;;7.40;4.00;;;;;;;14.01;90.69;99075.56;106214;1255;99084;-78
2023/11/02 12:38:56;;;;;;;6.30;3.30;;;;;;;14.03;90.94;99073.87;105415;1254;98970;-78
2023/11/02 12:41:42;;;;;;;6.00;3.90;;;;;;;14.05;90.17;99070.89;105512;1266;98055;-80
2023/11/02 12:44:28;;;;;;;5.80;3.50;;;;;;;14.05;90.29;99069.16;106057;1258;97867;-79
2023/11/02 12:47:13;;;;;;;7.70;4.20;;;;;;;14.06;90.11;99070.15;106116;1255;101350;-79
2023/11/02 12:49:59;;;;;;;6.10;4.30;;;;;;;14.07;89.99;99061.43;106085;1254;99120;-80
2023/11/02 12:52:46;;;;;;;5.70;3.70;;;;;;;14.07;89.73;99050.70;105996;1254;99002;-79
2023/11/02 12:55:47;;;;;;;11.20;4.40;;;;;;;14.07;89.23;99044.48;106030;1257;98441;-80